createdAt,value
2019-01-24T00:01:38.549Z,132.27
2019-01-24T00:06:46.015Z,125.47
2019-01-24T00:11:55.612Z,130.63
2019-01-24T00:17:07.128Z,123.57
2019-01-24T00:22:15.927Z,124.77
2019-01-24T00:37:52.939Z,123.78
2019-01-24T00:48:20.109Z,110.63
2019-01-24T00:53:36.644Z,128.40
2019-01-24T00:58:45.956Z,109.35
2019-01-24T01:14:05.115Z,101.40
2019-01-24T01:24:19.103Z,96.30
2019-01-24T01:39:40.806Z,112.28
2019-01-24T01:44:47.087Z,102.42
2019-01-24T01:49:54.115Z,91.30
2019-01-24T01:55:01.584Z,105.30
2019-01-24T02:00:08.657Z,100.10
2019-01-24T02:05:15.662Z,96.92
2019-01-24T02:10:22.654Z,106.58
2019-01-24T02:15:29.050Z,105.00
2019-01-24T02:35:55.580Z,102.35
2019-01-24T02:51:15.047Z,107.45
2019-01-24T03:16:47.602Z,97.43
2019-01-24T03:37:13.671Z,89.57
2019-01-24T03:42:20.730Z,98.65
2019-01-24T03:47:26.942Z,93.70
2019-01-24T03:57:40.933Z,93.40
2019-01-24T04:07:54.726Z,98.57
2019-01-24T04:28:20.954Z,94.87
2019-01-24T04:48:48.041Z,96.55
2019-01-24T05:09:14.073Z,85.17
2019-01-24T05:24:34.592Z,103.03
2019-01-24T05:29:41.749Z,94.05
2019-01-24T05:34:48.784Z,91.65
2019-01-24T05:39:55.121Z,100.22
2019-01-24T05:45:02.833Z,91.42
2019-01-24T05:50:09.115Z,93.47
2019-01-24T05:55:16.115Z,86.02
2019-01-24T06:05:33.789Z,92.65
2019-01-24T06:10:40.726Z,90.57
2019-01-24T06:15:47.770Z,96.70
2019-01-24T06:20:54.767Z,90.77
2019-01-24T06:26:01.051Z,104.60
2019-01-24T06:41:22.172Z,93.80
2019-01-24T06:46:28.404Z,83.20
2019-01-24T06:51:35.821Z,91.90
2019-01-24T06:56:42.096Z,84.70
2019-01-24T07:01:49.694Z,86.45
2019-01-24T07:06:56.578Z,89.85
2019-01-24T07:12:03.789Z,90.55
2019-01-24T07:17:10.782Z,93.22
2019-01-24T07:27:23.753Z,76.37
2019-01-24T07:32:30.746Z,92.72
2019-01-24T07:37:37.737Z,87.92
2019-01-24T07:42:46.531Z,95.67
2019-01-24T07:47:53.676Z,85.50
2019-01-24T07:53:00.690Z,81.65
2019-01-24T07:58:07.050Z,85.92
2019-01-24T08:03:13.922Z,91.90
2019-01-24T08:23:40.698Z,77.67
2019-01-24T08:33:55.565Z,89.17
2019-01-24T08:39:02.690Z,79.93
2019-01-24T08:44:09.083Z,90.87
2019-01-24T08:59:29.588Z,92.97
2019-01-24T09:09:43.040Z,87.77
2019-01-24T09:25:03.708Z,81.33
2019-01-24T09:30:10.703Z,87.93
2019-01-24T13:50:49.630Z,86.80
2019-01-24T14:01:03.278Z,87.30
2019-01-24T14:06:09.698Z,86.40
2019-01-24T14:11:18.180Z,82.05
2019-01-24T14:16:26.280Z,76.80
2019-01-24T14:21:34.537Z,91.15
2019-01-24T14:26:40.732Z,81.93
2019-01-24T14:31:47.290Z,84.53
2019-01-24T14:36:53.694Z,86.60
2019-01-24T14:47:06.281Z,88.10
2019-01-24T14:52:13.657Z,81.00
2019-01-24T15:02:26.626Z,76.77
2019-01-24T15:20:55.344Z,78.07
2019-01-24T15:26:02.058Z,84.70
2019-01-24T15:31:08.624Z,86.60
2019-01-24T15:41:21.873Z,95.63
2019-01-24T15:46:28.662Z,82.80
2019-01-24T15:56:43.860Z,100.33
2019-01-24T16:01:50.675Z,87.73
2019-01-24T16:06:57.310Z,102.10
2019-01-24T16:12:03.778Z,95.77
2019-01-24T16:17:10.745Z,93.10
2019-01-24T16:22:17.811Z,93.50
2019-01-24T16:27:24.834Z,93.37
2019-01-24T16:32:31.707Z,78.80
2019-01-24T16:37:38.849Z,101.78
2019-01-24T16:42:45.632Z,97.40
2019-01-24T16:47:52.711Z,91.37
2019-01-24T16:58:18.757Z,90.47
2019-01-24T17:08:33.466Z,95.57
2019-01-24T17:18:46.328Z,91.30
2019-01-24T17:23:52.814Z,83.63
2019-01-24T17:28:59.477Z,80.03
2019-01-24T17:34:06.027Z,81.57
2019-01-24T17:39:12.586Z,86.07
2019-01-24T17:49:26.353Z,88.17
2019-01-24T17:54:32.823Z,97.73
2019-01-24T17:59:39.974Z,85.90
2019-01-24T18:04:46.586Z,86.83
2019-01-24T18:14:59.514Z,98.37
2019-01-24T18:20:06.055Z,89.67
2019-01-24T18:25:12.629Z,92.27
2019-01-24T18:35:25.606Z,92.83
2019-01-24T18:51:13.030Z,84.83
2019-01-24T18:56:19.615Z,87.67
2019-01-24T19:06:32.679Z,92.20
2019-01-24T19:11:39.292Z,81.87
2019-01-24T19:16:45.719Z,86.57
2019-01-24T19:21:52.630Z,91.80
2019-01-24T19:26:59.965Z,83.33
2019-01-24T19:32:06.591Z,94.43
2019-01-24T19:42:19.494Z,84.53
2019-01-24T19:47:26.396Z,84.00
2019-01-24T19:52:32.867Z,89.67
2019-01-24T19:57:38.995Z,95.70
2019-01-24T20:02:45.949Z,93.57
2019-01-24T20:12:59.774Z,83.27
2019-01-24T20:28:18.609Z,94.83
2019-01-24T20:33:24.866Z,99.27
2019-01-24T20:38:31.673Z,94.03
2019-01-24T20:43:38.287Z,88.03
2019-01-24T20:48:44.758Z,91.37
2019-01-24T20:53:51.398Z,86.70
2019-01-24T20:58:57.950Z,90.53
2019-01-24T21:04:04.550Z,91.13
2019-01-24T21:14:19.398Z,95.00
2019-01-24T21:19:26.640Z,94.23
2019-01-24T21:24:46.594Z,97.60
2019-01-24T21:29:53.478Z,91.53
2019-01-24T21:35:00.037Z,94.37
2019-01-24T21:40:06.648Z,90.57
2019-01-24T21:45:13.337Z,93.70
2019-01-24T21:50:24.477Z,101.73
2019-01-24T21:55:31.319Z,100.42
2019-01-24T22:00:37.993Z,99.03
2019-01-24T22:05:45.030Z,107.47
2019-01-24T22:10:51.686Z,96.23
2019-01-24T22:21:04.638Z,95.07
2019-01-24T22:26:11.344Z,96.23
2019-01-24T22:31:17.824Z,103.10
2019-01-24T22:36:24.819Z,100.53
2019-01-24T22:41:31.537Z,112.00
2019-01-24T22:51:45.122Z,102.65
2019-01-24T22:56:51.636Z,107.20
